Date,TemperatureHighF,TemperatureAvgF,TemperatureLowF,DewpointHighF,DewpointAvgF,DewpointLowF,HumidityHigh,HumidityAvg,HumidityLow,PressureMaxIn,PressureMinIn,WindSpeedMaxMPH,WindSpeedAvgMPH,GustSpeedMaxMPH,PrecipitationSumIn
2013-4-1,60,46,35,48,37,16,98,75,43,29.83,29.56,16,3,20,0.07
2013-4-2,41,35,28,20,14,10,68,43,30,30.02,29.84,18,6,20,0.00
2013-4-3,45,37,28,18,15,11,62,42,29,30.24,30.01,20,6,20,0.00
2013-4-4,51,36,27,33,23,15,85,61,34,30.35,30.09,10,2,15,0.00
2013-4-5,61,47,36,33,26,18,85,48,21,30.07,29.67,18,4,18,0.00
2013-4-6,48,39,31,27,15,6,69,41,19,30.31,29.92,21,4,21,0.00
2013-4-7,53,46,34,43,37,26,94,72,53,30.31,30.01,26,3,26,0.02
2013-4-8,69,55,42,45,43,37,97,66,33,30.06,29.97,11,2,12,0.01
2013-4-9,78,65,47,55,46,41,98,56,32,30.02,29.87,16,2,16,0.01
2013-4-10,68,55,48,55,50,41,97,83,56,29.93,29.81,11,2,18,0.30
2013-4-11,58,50,44,52,45,37,98,84,64,30.06,29.77,11,3,11,0.01
2013-4-12,44,39,37,39,36,28,98,88,56,30.07,29.72,23,7,25,0.47
2013-4-13,54,46,36,41,38,34,98,74,51,29.94,29.73,14,2,16,0.04
2013-4-14,54,47,41,39,32,26,84,56,39,30.20,29.93,15,3,16,0.00
2013-4-15,54,46,38,37,32,25,76,58,42,30.38,30.20,15,2,15,0.00
2013-4-16,61,51,40,52,47,35,96,86,68,30.38,30.11,17,3,17,0.01
2013-4-17,66,58,49,53,38,31,95,51,29,30.29,30.10,16,3,18,0.00
2013-4-18,57,50,43,47,41,34,92,74,44,30.36,30.12,17,4,21,0.00
2013-4-19,65,58,50,62,57,47,99,97,89,30.12,29.65,19,3,22,0.01
2013-4-20,59,51,41,59,37,26,99,63,35,30.26,29.63,19,4,19,0.28
2013-4-21,52,42,33,34,25,19,77,53,31,30.63,30.25,16,3,16,0.00
2013-4-22,53,45,36,38,33,26,85,66,40,30.68,30.51,18,4,21,0.00
2013-4-23,45,41,36,41,37,31,92,86,74,30.51,30.07,20,6,21,0.00
2013-4-24,68,53,41,51,46,39,97,79,48,30.07,29.85,14,3,17,0.00
2013-4-25,62,55,46,50,32,24,98,47,25,30.26,29.85,19,2,19,0.02
2013-4-26,64,56,44,39,33,25,60,42,31,30.39,30.25,12,2,12,0.00
2013-4-27,64,53,42,42,36,29,72,54,33,30.40,30.28,12,2,13,0.00
2013-4-28,65,54,44,46,40,31,95,62,34,30.31,30.22,15,2,15,0.00
2013-4-29,57,52,48,48,44,38,92,74,50,30.25,30.21,14,2,14,0.00
2013-4-30,64,55,47,44,35,25,84,50,26,30.34,30.22,14,2,14,0.00